Airfield :
LOGIN :

Register | Disclaimer

   EN    FR    IT 

 










Legend :    VFR   Marginal VFR   IFR   Intensive IFR   Very Intensive IFR
Visi :
Ceiling :
>= 8 km
>= 3000ft
5 to 8 km
1000 to 3000 ft
1500m to 5 km
500 to 1000 ft
800 to 1500m
200 to 500 ft
< 800m
< 200 ft
Symbols :   Thunderstorms  Fog  Heavy snow  Heavy precipitations  Wind > 20 kt
SIGMETs :     Misc.  Thunderstorms  Icing  Turbulence  Mountain Waves  Volcanic Ashes






- Airport Elevation : 160 ft
- IATA code : LRT


LFRH - Lorient Lann Bihoue

CURRENT METAR :
  • 282130Z AUTO 30004KT 9999 NSC 08/06 Q1017 NOSIG

EXPIRED METARs :
  • 282100Z AUTO 29005KT 9999 NSC 08/06 Q1017 NOSIG
  • 282030Z AUTO 28006KT 9999 NSC 07/06 Q1017 NOSIG
  • 282000Z AUTO 28006KT 9999 NSC 07/06 Q1017 NOSIG
  • 281930Z AUTO 25005KT 9999 NSC 07/05 Q1017 NOSIG
  • 281900Z AUTO 28005KT 9999 FEW028 07/05 Q1016 TEMPO 3000 SHRA SCT030CB

TAF TAF LFRH
Valid from the 28 at 18:00 until the 29 at 18:00 UTC


281700Z 2818/2918 27010KT CAVOK
TEMPO 2818/2820 3000 SHRA SCT030CB
BECMG 2821/2823 VRB04KT
TEMPO 2902/2910 2000 BR BKN002
PROB30
TEMPO 2902/2907 0800 FG VV///
TEMPO 2917/2918 3000 BR



MET'MAP, your aeronautical weather chart ! - Copyright ORBIFLY December 2007 - Disclaimer

ORBIFLY MET'MAP TEAM :

Programming & Development : Alexandra Zaïnal
Original concept : Baudouin d'Aumeries
Technical & hardware support : Manuel Goepfert
Assistance : Marc-Olivier Méhu




SOURCES & CREDITS :

   NOAA